sensor_id;sensor_type;location;lat;lon;timestamp;pressure;altitude;pressure_sealevel;temperature
75822;BMP180;64454;51.984;9.838;2023-12-04T00:00:16;100470.00;;;-1.60
75822;BMP180;64454;51.984;9.838;2023-12-04T00:02:42;100471.00;;;-1.90
75822;BMP180;64454;51.984;9.838;2023-12-04T00:05:08;100468.00;;;-1.70
75822;BMP180;64454;51.984;9.838;2023-12-04T00:07:35;100458.00;;;-1.70
75822;BMP180;64454;51.984;9.838;2023-12-04T00:10:01;100457.00;;;-1.50
75822;BMP180;64454;51.984;9.838;2023-12-04T00:12:27;100449.00;;;-1.70
75822;BMP180;64454;51.984;9.838;2023-12-04T00:14:53;100445.00;;;-1.60
75822;BMP180;64454;51.984;9.838;2023-12-04T00:17:20;100451.00;;;-1.50
75822;BMP180;64454;51.984;9.838;2023-12-04T00:19:46;100433.00;;;-1.50
75822;BMP180;64454;51.984;9.838;2023-12-04T00:22:12;100434.00;;;-1.50
75822;BMP180;64454;51.984;9.838;2023-12-04T00:24:38;100428.00;;;-1.60
75822;BMP180;64454;51.984;9.838;2023-12-04T00:27:04;100429.00;;;-1.70
75822;BMP180;64454;51.984;9.838;2023-12-04T00:29:30;100418.00;;;-1.60
75822;BMP180;64454;51.984;9.838;2023-12-04T00:31:57;100416.00;;;-1.60
75822;BMP180;64454;51.984;9.838;2023-12-04T00:34:23;100410.00;;;-1.50
75822;BMP180;64454;51.984;9.838;2023-12-04T00:36:49;100416.00;;;-1.50
75822;BMP180;64454;51.984;9.838;2023-12-04T00:39:16;100403.00;;;-1.60
75822;BMP180;64454;51.984;9.838;2023-12-04T00:41:42;100397.00;;;-1.60
75822;BMP180;64454;51.984;9.838;2023-12-04T00:44:08;100404.00;;;-1.60
75822;BMP180;64454;51.984;9.838;2023-12-04T00:46:34;100396.00;;;-1.30
75822;BMP180;64454;51.984;9.838;2023-12-04T00:49:01;100392.00;;;-1.40
75822;BMP180;64454;51.984;9.838;2023-12-04T00:51:27;100388.00;;;-1.40
75822;BMP180;64454;51.984;9.838;2023-12-04T00:53:53;100385.00;;;-1.50
75822;BMP180;64454;51.984;9.838;2023-12-04T00:56:19;100387.00;;;-1.40
75822;BMP180;64454;51.984;9.838;2023-12-04T00:58:46;100395.00;;;-1.50
75822;BMP180;64454;51.984;9.838;2023-12-04T01:01:12;100377.00;;;-1.60
75822;BMP180;64454;51.984;9.838;2023-12-04T01:03:39;100391.00;;;-1.50
75822;BMP180;64454;51.984;9.838;2023-12-04T01:06:06;100374.00;;;-1.70
75822;BMP180;64454;51.984;9.838;2023-12-04T01:08:33;100363.00;;;-1.80
75822;BMP180;64454;51.984;9.838;2023-12-04T01:10:59;100367.00;;;-1.60
75822;BMP180;64454;51.984;9.838;2023-12-04T01:13:25;100363.00;;;-1.60
75822;BMP180;64454;51.984;9.838;2023-12-04T01:15:51;100356.00;;;-1.50
75822;BMP180;64454;51.984;9.838;2023-12-04T01:18:17;100363.00;;;-1.70
75822;BMP180;64454;51.984;9.838;2023-12-04T01:20:43;100359.00;;;-1.70
75822;BMP180;64454;51.984;9.838;2023-12-04T01:23:10;100364.00;;;-1.70
75822;BMP180;64454;51.984;9.838;2023-12-04T01:25:36;100360.00;;;-1.70
75822;BMP180;64454;51.984;9.838;2023-12-04T01:28:02;100360.00;;;-1.80
75822;BMP180;64454;51.984;9.838;2023-12-04T01:30:29;100357.00;;;-1.80
75822;BMP180;64454;51.984;9.838;2023-12-04T01:32:55;100343.00;;;-1.60
75822;BMP180;64454;51.984;9.838;2023-12-04T01:35:21;100338.00;;;-1.60
75822;BMP180;64454;51.984;9.838;2023-12-04T01:37:47;100344.00;;;-1.80
75822;BMP180;64454;51.984;9.838;2023-12-04T01:40:13;100326.00;;;-1.80
75822;BMP180;64454;51.984;9.838;2023-12-04T01:42:42;100320.00;;;-1.70
75822;BMP180;64454;51.984;9.838;2023-12-04T01:45:09;100313.00;;;-1.70
75822;BMP180;64454;51.984;9.838;2023-12-04T01:47:35;100316.00;;;-1.80
75822;BMP180;64454;51.984;9.838;2023-12-04T01:50:01;100303.00;;;-1.70
75822;BMP180;64454;51.984;9.838;2023-12-04T01:52:28;100312.00;;;-1.70
75822;BMP180;64454;51.984;9.838;2023-12-04T01:54:54;100293.00;;;-1.70
75822;BMP180;64454;51.984;9.838;2023-12-04T01:57:20;100292.00;;;-1.80
75822;BMP180;64454;51.984;9.838;2023-12-04T01:59:47;100281.00;;;-1.70
75822;BMP180;64454;51.984;9.838;2023-12-04T02:02:14;100288.00;;;-1.80
75822;BMP180;64454;51.984;9.838;2023-12-04T02:04:40;100289.00;;;-1.60
75822;BMP180;64454;51.984;9.838;2023-12-04T02:07:07;100272.00;;;-1.80
75822;BMP180;64454;51.984;9.838;2023-12-04T02:09:34;100268.00;;;-1.80
75822;BMP180;64454;51.984;9.838;2023-12-04T02:12:01;100269.00;;;-1.70
75822;BMP180;64454;51.984;9.838;2023-12-04T02:14:27;100273.00;;;-1.70
75822;BMP180;64454;51.984;9.838;2023-12-04T02:16:55;100267.00;;;-1.70
75822;BMP180;64454;51.984;9.838;2023-12-04T02:19:24;100267.00;;;-1.70
75822;BMP180;64454;51.984;9.838;2023-12-04T02:21:50;100266.00;;;-1.50
75822;BMP180;64454;51.984;9.838;2023-12-04T02:24:17;100264.00;;;-1.60
75822;BMP180;64454;51.984;9.838;2023-12-04T02:26:47;100267.00;;;-1.30
75822;BMP180;64454;51.984;9.838;2023-12-04T02:29:30;100262.00;;;-1.40
75822;BMP180;64454;51.984;9.838;2023-12-04T02:31:58;100244.00;;;-1.60
75822;BMP180;64454;51.984;9.838;2023-12-04T02:34:25;100237.00;;;-1.40
75822;BMP180;64454;51.984;9.838;2023-12-04T02:36:53;100241.00;;;-1.40
75822;BMP180;64454;51.984;9.838;2023-12-04T02:39:20;100230.00;;;-1.20
75822;BMP180;64454;51.984;9.838;2023-12-04T02:41:47;100237.00;;;-1.10
75822;BMP180;64454;51.984;9.838;2023-12-04T02:44:13;100228.00;;;-1.30
75822;BMP180;64454;51.984;9.838;2023-12-04T02:46:39;100228.00;;;-1.20
75822;BMP180;64454;51.984;9.838;2023-12-04T02:49:05;100219.00;;;-1.10
75822;BMP180;64454;51.984;9.838;2023-12-04T02:51:32;100212.00;;;-1.10
75822;BMP180;64454;51.984;9.838;2023-12-04T02:53:58;100212.00;;;-1.20
75822;BMP180;64454;51.984;9.838;2023-12-04T02:56:25;100213.00;;;-0.90
75822;BMP180;64454;51.984;9.838;2023-12-04T02:58:51;100210.00;;;-1.00
75822;BMP180;64454;51.984;9.838;2023-12-04T03:01:17;100209.00;;;-0.90
75822;BMP180;64454;51.984;9.838;2023-12-04T03:03:43;100214.00;;;-1.10
75822;BMP180;64454;51.984;9.838;2023-12-04T03:06:09;100203.00;;;-0.80
75822;BMP180;64454;51.984;9.838;2023-12-04T03:08:35;100202.00;;;-1.00
75822;BMP180;64454;51.984;9.838;2023-12-04T03:11:02;100200.00;;;-0.80
75822;BMP180;64454;51.984;9.838;2023-12-04T03:13:29;100200.00;;;-0.80
75822;BMP180;64454;51.984;9.838;2023-12-04T03:15:55;100200.00;;;-0.80
75822;BMP180;64454;51.984;9.838;2023-12-04T03:18:21;100198.00;;;-0.60
75822;BMP180;64454;51.984;9.838;2023-12-04T03:20:49;100202.00;;;-0.60
75822;BMP180;64454;51.984;9.838;2023-12-04T03:23:15;100197.00;;;-0.50
75822;BMP180;64454;51.984;9.838;2023-12-04T03:25:41;100200.00;;;-0.70
75822;BMP180;64454;51.984;9.838;2023-12-04T03:28:07;100195.00;;;-0.70
75822;BMP180;64454;51.984;9.838;2023-12-04T03:30:34;100193.00;;;-0.60
75822;BMP180;64454;51.984;9.838;2023-12-04T03:33:00;100186.00;;;-0.70
75822;BMP180;64454;51.984;9.838;2023-12-04T03:35:26;100172.00;;;-0.70
75822;BMP180;64454;51.984;9.838;2023-12-04T03:37:52;100180.00;;;-0.70
75822;BMP180;64454;51.984;9.838;2023-12-04T03:40:18;100176.00;;;-0.90
75822;BMP180;64454;51.984;9.838;2023-12-04T03:42:45;100179.00;;;-0.80
75822;BMP180;64454;51.984;9.838;2023-12-04T03:45:11;100166.00;;;-1.00
75822;BMP180;64454;51.984;9.838;2023-12-04T03:47:37;100172.00;;;-0.80
75822;BMP180;64454;51.984;9.838;2023-12-04T03:50:05;100165.00;;;-0.80
75822;BMP180;64454;51.984;9.838;2023-12-04T03:52:31;100167.00;;;-0.80
75822;BMP180;64454;51.984;9.838;2023-12-04T03:54:57;100157.00;;;-0.90
75822;BMP180;64454;51.984;9.838;2023-12-04T03:57:23;100158.00;;;-0.70
75822;BMP180;64454;51.984;9.838;2023-12-04T03:59:49;100145.00;;;-0.80
75822;BMP180;64454;51.984;9.838;2023-12-04T04:02:15;100150.00;;;-0.70
75822;BMP180;64454;51.984;9.838;2023-12-04T04:04:42;100136.00;;;-0.80
75822;BMP180;64454;51.984;9.838;2023-12-04T04:07:09;100143.00;;;-0.90
75822;BMP180;64454;51.984;9.838;2023-12-04T04:09:35;100126.00;;;-1.00
75822;BMP180;64454;51.984;9.838;2023-12-04T04:12:01;100129.00;;;-0.80
75822;BMP180;64454;51.984;9.838;2023-12-04T04:14:27;100128.00;;;-0.90
75822;BMP180;64454;51.984;9.838;2023-12-04T04:16:53;100128.00;;;-0.80
75822;BMP180;64454;51.984;9.838;2023-12-04T04:19:19;100118.00;;;-1.00
75822;BMP180;64454;51.984;9.838;2023-12-04T04:21:46;100120.00;;;-1.00
75822;BMP180;64454;51.984;9.838;2023-12-04T04:24:12;100123.00;;;-0.90
75822;BMP180;64454;51.984;9.838;2023-12-04T04:26:38;100121.00;;;-0.80
75822;BMP180;64454;51.984;9.838;2023-12-04T04:29:04;100121.00;;;-0.80
75822;BMP180;64454;51.984;9.838;2023-12-04T04:31:30;100122.00;;;-0.90
75822;BMP180;64454;51.984;9.838;2023-12-04T04:33:56;100120.00;;;-0.80
75822;BMP180;64454;51.984;9.838;2023-12-04T04:36:22;100118.00;;;-0.80
75822;BMP180;64454;51.984;9.838;2023-12-04T04:38:49;100120.00;;;-1.00
75822;BMP180;64454;51.984;9.838;2023-12-04T04:41:15;100112.00;;;-1.00
75822;BMP180;64454;51.984;9.838;2023-12-04T04:43:41;100102.00;;;-1.10
75822;BMP180;64454;51.984;9.838;2023-12-04T04:46:08;100095.00;;;-1.00
75822;BMP180;64454;51.984;9.838;2023-12-04T04:48:34;100091.00;;;-1.10
75822;BMP180;64454;51.984;9.838;2023-12-04T04:51:00;100087.00;;;-1.10
75822;BMP180;64454;51.984;9.838;2023-12-04T04:53:26;100083.00;;;-1.00
75822;BMP180;64454;51.984;9.838;2023-12-04T04:55:54;100093.00;;;-1.00
75822;BMP180;64454;51.984;9.838;2023-12-04T04:58:20;100084.00;;;-0.90
75822;BMP180;64454;51.984;9.838;2023-12-04T05:00:46;100078.00;;;-0.90
75822;BMP180;64454;51.984;9.838;2023-12-04T05:03:12;100077.00;;;-1.00
75822;BMP180;64454;51.984;9.838;2023-12-04T05:05:39;100082.00;;;-1.00
75822;BMP180;64454;51.984;9.838;2023-12-04T05:08:05;100080.00;;;-0.90
75822;BMP180;64454;51.984;9.838;2023-12-04T05:10:31;100075.00;;;-1.10
75822;BMP180;64454;51.984;9.838;2023-12-04T05:12:58;100086.00;;;-1.00
75822;BMP180;64454;51.984;9.838;2023-12-04T05:15:24;100075.00;;;-1.10
75822;BMP180;64454;51.984;9.838;2023-12-04T05:17:51;100079.00;;;-1.00
75822;BMP180;64454;51.984;9.838;2023-12-04T05:20:17;100082.00;;;-1.00
75822;BMP180;64454;51.984;9.838;2023-12-04T05:22:43;100080.00;;;-1.10
75822;BMP180;64454;51.984;9.838;2023-12-04T05:25:09;100079.00;;;-1.00
75822;BMP180;64454;51.984;9.838;2023-12-04T05:27:35;100076.00;;;-1.00
75822;BMP180;64454;51.984;9.838;2023-12-04T05:30:03;100062.00;;;-1.00
75822;BMP180;64454;51.984;9.838;2023-12-04T05:32:29;100073.00;;;-1.10
75822;BMP180;64454;51.984;9.838;2023-12-04T05:34:55;100058.00;;;-1.10
75822;BMP180;64454;51.984;9.838;2023-12-04T05:37:21;100058.00;;;-1.00
75822;BMP180;64454;51.984;9.838;2023-12-04T05:39:47;100059.00;;;-1.20
75822;BMP180;64454;51.984;9.838;2023-12-04T05:42:13;100074.00;;;-1.20
75822;BMP180;64454;51.984;9.838;2023-12-04T05:44:39;100075.00;;;-0.90
75822;BMP180;64454;51.984;9.838;2023-12-04T05:47:06;100070.00;;;-1.00
75822;BMP180;64454;51.984;9.838;2023-12-04T05:49:33;100065.00;;;-1.00
75822;BMP180;64454;51.984;9.838;2023-12-04T05:51:59;100068.00;;;-1.10
75822;BMP180;64454;51.984;9.838;2023-12-04T05:54:25;100055.00;;;-1.00
75822;BMP180;64454;51.984;9.838;2023-12-04T05:56:52;100051.00;;;-0.80
75822;BMP180;64454;51.984;9.838;2023-12-04T05:59:21;100065.00;;;-0.70
75822;BMP180;64454;51.984;9.838;2023-12-04T06:01:47;100056.00;;;-1.00
75822;BMP180;64454;51.984;9.838;2023-12-04T06:04:14;100044.00;;;-1.10
75822;BMP180;64454;51.984;9.838;2023-12-04T06:06:40;100047.00;;;-1.00
75822;BMP180;64454;51.984;9.838;2023-12-04T06:09:06;100050.00;;;-1.00
75822;BMP180;64454;51.984;9.838;2023-12-04T06:11:32;100050.00;;;-1.10
75822;BMP180;64454;51.984;9.838;2023-12-04T06:13:58;100057.00;;;-1.00
75822;BMP180;64454;51.984;9.838;2023-12-04T06:16:24;100050.00;;;-1.00
75822;BMP180;64454;51.984;9.838;2023-12-04T06:18:50;100043.00;;;-1.10
75822;BMP180;64454;51.984;9.838;2023-12-04T06:21:17;100041.00;;;-1.10
75822;BMP180;64454;51.984;9.838;2023-12-04T06:23:44;100053.00;;;-1.10
75822;BMP180;64454;51.984;9.838;2023-12-04T06:26:12;100054.00;;;-1.20
75822;BMP180;64454;51.984;9.838;2023-12-04T06:28:39;100038.00;;;-1.20
75822;BMP180;64454;51.984;9.838;2023-12-04T06:31:07;100043.00;;;-1.20
75822;BMP180;64454;51.984;9.838;2023-12-04T06:33:34;100042.00;;;-1.20
75822;BMP180;64454;51.984;9.838;2023-12-04T06:36:00;100040.00;;;-1.20
75822;BMP180;64454;51.984;9.838;2023-12-04T06:38:32;100038.00;;;-1.10
75822;BMP180;64454;51.984;9.838;2023-12-04T06:40:59;100044.00;;;-1.20
75822;BMP180;64454;51.984;9.838;2023-12-04T06:43:26;100040.00;;;-1.10
75822;BMP180;64454;51.984;9.838;2023-12-04T06:45:54;100048.00;;;-1.20
75822;BMP180;64454;51.984;9.838;2023-12-04T06:48:23;100034.00;;;-1.20
75822;BMP180;64454;51.984;9.838;2023-12-04T06:50:49;100043.00;;;-1.20
75822;BMP180;64454;51.984;9.838;2023-12-04T06:53:15;100048.00;;;-1.30
75822;BMP180;64454;51.984;9.838;2023-12-04T06:55:42;100052.00;;;-1.20
75822;BMP180;64454;51.984;9.838;2023-12-04T06:58:08;100049.00;;;-1.20
75822;BMP180;64454;51.984;9.838;2023-12-04T07:00:34;100053.00;;;-1.00
75822;BMP180;64454;51.984;9.838;2023-12-04T07:03:00;100047.00;;;-1.10
75822;BMP180;64454;51.984;9.838;2023-12-04T07:05:26;100048.00;;;-1.10
75822;BMP180;64454;51.984;9.838;2023-12-04T07:07:52;100049.00;;;-1.10
75822;BMP180;64454;51.984;9.838;2023-12-04T07:10:19;100062.00;;;-1.20
75822;BMP180;64454;51.984;9.838;2023-12-04T07:12:46;100062.00;;;-1.20
75822;BMP180;64454;51.984;9.838;2023-12-04T07:15:12;100073.00;;;-1.20
75822;BMP180;64454;51.984;9.838;2023-12-04T07:17:39;100062.00;;;-1.20
75822;BMP180;64454;51.984;9.838;2023-12-04T07:20:07;100070.00;;;-1.20
75822;BMP180;64454;51.984;9.838;2023-12-04T07:22:34;100067.00;;;-1.10
75822;BMP180;64454;51.984;9.838;2023-12-04T07:25:00;100069.00;;;-1.10
75822;BMP180;64454;51.984;9.838;2023-12-04T07:27:27;100074.00;;;-1.10
75822;BMP180;64454;51.984;9.838;2023-12-04T07:29:54;100060.00;;;-1.00
75822;BMP180;64454;51.984;9.838;2023-12-04T07:32:20;100067.00;;;-1.00
75822;BMP180;64454;51.984;9.838;2023-12-04T07:34:46;100073.00;;;-0.70
75822;BMP180;64454;51.984;9.838;2023-12-04T07:37:12;100074.00;;;-0.90
75822;BMP180;64454;51.984;9.838;2023-12-04T07:39:39;100065.00;;;-1.00
75822;BMP180;64454;51.984;9.838;2023-12-04T07:42:05;100066.00;;;-1.00
75822;BMP180;64454;51.984;9.838;2023-12-04T07:44:31;100050.00;;;-1.00
75822;BMP180;64454;51.984;9.838;2023-12-04T07:46:58;100064.00;;;-0.80
75822;BMP180;64454;51.984;9.838;2023-12-04T07:49:24;100057.00;;;-0.90
75822;BMP180;64454;51.984;9.838;2023-12-04T07:51:50;100061.00;;;-0.80
75822;BMP180;64454;51.984;9.838;2023-12-04T07:54:16;100043.00;;;-1.00
75822;BMP180;64454;51.984;9.838;2023-12-04T07:56:42;100037.00;;;-1.10
75822;BMP180;64454;51.984;9.838;2023-12-04T07:59:08;100041.00;;;-1.10
75822;BMP180;64454;51.984;9.838;2023-12-04T08:01:35;100045.00;;;-0.90
75822;BMP180;64454;51.984;9.838;2023-12-04T08:04:01;100038.00;;;-0.90
75822;BMP180;64454;51.984;9.838;2023-12-04T08:06:28;100036.00;;;-0.80
75822;BMP180;64454;51.984;9.838;2023-12-04T08:08:55;100031.00;;;-1.10
75822;BMP180;64454;51.984;9.838;2023-12-04T08:11:21;100027.00;;;-0.90
75822;BMP180;64454;51.984;9.838;2023-12-04T08:13:47;100024.00;;;-1.00
75822;BMP180;64454;51.984;9.838;2023-12-04T08:16:14;100032.00;;;-0.90
75822;BMP180;64454;51.984;9.838;2023-12-04T08:18:41;100021.00;;;-0.80
75822;BMP180;64454;51.984;9.838;2023-12-04T08:21:08;100017.00;;;-0.80
75822;BMP180;64454;51.984;9.838;2023-12-04T08:23:34;100004.00;;;-0.80
75822;BMP180;64454;51.984;9.838;2023-12-04T08:26:01;100012.00;;;-0.70
75822;BMP180;64454;51.984;9.838;2023-12-04T08:28:27;100017.00;;;-1.00
75822;BMP180;64454;51.984;9.838;2023-12-04T08:30:53;99996.00;;;-0.90
75822;BMP180;64454;51.984;9.838;2023-12-04T08:33:19;99990.00;;;-0.70
75822;BMP180;64454;51.984;9.838;2023-12-04T08:35:46;99999.00;;;-0.70
75822;BMP180;64454;51.984;9.838;2023-12-04T08:38:13;99999.00;;;-0.70
75822;BMP180;64454;51.984;9.838;2023-12-04T08:40:39;99999.00;;;-0.70
75822;BMP180;64454;51.984;9.838;2023-12-04T08:43:05;99998.00;;;-0.70
75822;BMP180;64454;51.984;9.838;2023-12-04T08:45:31;99986.00;;;-0.40
75822;BMP180;64454;51.984;9.838;2023-12-04T08:47:59;99982.00;;;-0.50
75822;BMP180;64454;51.984;9.838;2023-12-04T08:50:25;99983.00;;;-0.70
75822;BMP180;64454;51.984;9.838;2023-12-04T08:52:51;99974.00;;;-0.70
75822;BMP180;64454;51.984;9.838;2023-12-04T08:55:18;99979.00;;;-0.60
75822;BMP180;64454;51.984;9.838;2023-12-04T08:57:45;99983.00;;;-0.80
75822;BMP180;64454;51.984;9.838;2023-12-04T09:00:12;99983.00;;;-0.80
75822;BMP180;64454;51.984;9.838;2023-12-04T09:02:39;99977.00;;;-0.90
75822;BMP180;64454;51.984;9.838;2023-12-04T09:05:05;99973.00;;;-0.60
75822;BMP180;64454;51.984;9.838;2023-12-04T09:07:32;99969.00;;;-0.40
75822;BMP180;64454;51.984;9.838;2023-12-04T09:09:59;99966.00;;;-0.30
75822;BMP180;64454;51.984;9.838;2023-12-04T09:12:26;99963.00;;;-0.20
75822;BMP180;64454;51.984;9.838;2023-12-04T09:14:52;99972.00;;;-0.50
75822;BMP180;64454;51.984;9.838;2023-12-04T09:17:18;99962.00;;;-0.50
75822;BMP180;64454;51.984;9.838;2023-12-04T09:19:46;99970.00;;;-0.30
75822;BMP180;64454;51.984;9.838;2023-12-04T09:22:12;99972.00;;;-0.60
75822;BMP180;64454;51.984;9.838;2023-12-04T09:24:38;99968.00;;;-0.60
75822;BMP180;64454;51.984;9.838;2023-12-04T09:27:04;99952.00;;;-0.40
75822;BMP180;64454;51.984;9.838;2023-12-04T09:29:33;99954.00;;;-0.40
75822;BMP180;64454;51.984;9.838;2023-12-04T09:31:59;99957.00;;;-0.20
75822;BMP180;64454;51.984;9.838;2023-12-04T09:34:25;99954.00;;;-0.10
75822;BMP180;64454;51.984;9.838;2023-12-04T09:36:52;99948.00;;;-0.20
75822;BMP180;64454;51.984;9.838;2023-12-04T09:39:18;99943.00;;;-0.20
75822;BMP180;64454;51.984;9.838;2023-12-04T09:41:45;99949.00;;;-0.30
75822;BMP180;64454;51.984;9.838;2023-12-04T09:44:12;99948.00;;;-0.50
75822;BMP180;64454;51.984;9.838;2023-12-04T09:46:40;99941.00;;;-0.20
75822;BMP180;64454;51.984;9.838;2023-12-04T09:49:07;99934.00;;;-0.40
75822;BMP180;64454;51.984;9.838;2023-12-04T09:51:34;99933.00;;;-0.30
75822;BMP180;64454;51.984;9.838;2023-12-04T09:54:03;99939.00;;;-0.20
75822;BMP180;64454;51.984;9.838;2023-12-04T09:56:29;99937.00;;;-0.40
75822;BMP180;64454;51.984;9.838;2023-12-04T09:58:59;99924.00;;;-0.40
75822;BMP180;64454;51.984;9.838;2023-12-04T10:01:26;99926.00;;;-0.40
75822;BMP180;64454;51.984;9.838;2023-12-04T10:03:53;99921.00;;;-0.30
75822;BMP180;64454;51.984;9.838;2023-12-04T10:06:19;99928.00;;;-0.30
75822;BMP180;64454;51.984;9.838;2023-12-04T10:08:46;99918.00;;;-0.20
75822;BMP180;64454;51.984;9.838;2023-12-04T10:11:13;99907.00;;;-0.10
75822;BMP180;64454;51.984;9.838;2023-12-04T10:13:40;99897.00;;;-0.20
75822;BMP180;64454;51.984;9.838;2023-12-04T10:16:07;99898.00;;;-0.10
75822;BMP180;64454;51.984;9.838;2023-12-04T10:18:34;99900.00;;;0.00
75822;BMP180;64454;51.984;9.838;2023-12-04T10:21:01;99900.00;;;-0.10
75822;BMP180;64454;51.984;9.838;2023-12-04T10:23:37;99890.00;;;0.00
75822;BMP180;64454;51.984;9.838;2023-12-04T10:26:04;99883.00;;;-0.10
75822;BMP180;64454;51.984;9.838;2023-12-04T10:28:31;99881.00;;;0.00
75822;BMP180;64454;51.984;9.838;2023-12-04T10:30:57;99868.00;;;0.10
75822;BMP180;64454;51.984;9.838;2023-12-04T10:33:25;99852.00;;;0.20
75822;BMP180;64454;51.984;9.838;2023-12-04T10:35:53;99852.00;;;0.00
75822;BMP180;64454;51.984;9.838;2023-12-04T10:38:19;99850.00;;;0.10
75822;BMP180;64454;51.984;9.838;2023-12-04T10:40:46;99857.00;;;0.20
75822;BMP180;64454;51.984;9.838;2023-12-04T10:43:16;99835.00;;;0.10
75822;BMP180;64454;51.984;9.838;2023-12-04T10:45:44;99838.00;;;0.20
75822;BMP180;64454;51.984;9.838;2023-12-04T10:48:13;99842.00;;;0.20
75822;BMP180;64454;51.984;9.838;2023-12-04T10:50:41;99840.00;;;0.30
75822;BMP180;64454;51.984;9.838;2023-12-04T10:53:10;99843.00;;;0.30
75822;BMP180;64454;51.984;9.838;2023-12-04T10:55:37;99834.00;;;0.20
75822;BMP180;64454;51.984;9.838;2023-12-04T10:58:06;99846.00;;;0.00
75822;BMP180;64454;51.984;9.838;2023-12-04T11:00:35;99828.00;;;0.20
75822;BMP180;64454;51.984;9.838;2023-12-04T11:03:07;99826.00;;;0.00
75822;BMP180;64454;51.984;9.838;2023-12-04T11:05:38;99820.00;;;0.00
75822;BMP180;64454;51.984;9.838;2023-12-04T11:08:06;99817.00;;;-0.10
75822;BMP180;64454;51.984;9.838;2023-12-04T11:10:42;99819.00;;;0.00
75822;BMP180;64454;51.984;9.838;2023-12-04T11:13:15;99810.00;;;0.00
75822;BMP180;64454;51.984;9.838;2023-12-04T11:15:45;99807.00;;;0.10
75822;BMP180;64454;51.984;9.838;2023-12-04T11:18:15;99796.00;;;0.20
75822;BMP180;64454;51.984;9.838;2023-12-04T11:20:46;99798.00;;;0.10
75822;BMP180;64454;51.984;9.838;2023-12-04T11:23:14;99793.00;;;0.20
75822;BMP180;64454;51.984;9.838;2023-12-04T11:25:43;99787.00;;;0.20
75822;BMP180;64454;51.984;9.838;2023-12-04T11:28:11;99781.00;;;0.00
75822;BMP180;64454;51.984;9.838;2023-12-04T11:30:38;99782.00;;;0.00
75822;BMP180;64454;51.984;9.838;2023-12-04T11:33:05;99779.00;;;0.00
75822;BMP180;64454;51.984;9.838;2023-12-04T11:35:33;99775.00;;;0.10
75822;BMP180;64454;51.984;9.838;2023-12-04T11:38:00;99782.00;;;0.00
75822;BMP180;64454;51.984;9.838;2023-12-04T11:40:27;99773.00;;;0.00
75822;BMP180;64454;51.984;9.838;2023-12-04T11:42:54;99769.00;;;-0.10
75822;BMP180;64454;51.984;9.838;2023-12-04T11:45:20;99762.00;;;0.00
75822;BMP180;64454;51.984;9.838;2023-12-04T11:47:51;99762.00;;;0.00
75822;BMP180;64454;51.984;9.838;2023-12-04T11:50:19;99757.00;;;-0.10
75822;BMP180;64454;51.984;9.838;2023-12-04T11:52:46;99756.00;;;0.00
75822;BMP180;64454;51.984;9.838;2023-12-04T11:55:15;99756.00;;;0.10
75822;BMP180;64454;51.984;9.838;2023-12-04T11:57:42;99753.00;;;-0.10
75822;BMP180;64454;51.984;9.838;2023-12-04T12:00:12;99748.00;;;0.00
75822;BMP180;64454;51.984;9.838;2023-12-04T12:02:41;99746.00;;;-0.10
75822;BMP180;64454;51.984;9.838;2023-12-04T12:05:12;99737.00;;;0.00
75822;BMP180;64454;51.984;9.838;2023-12-04T12:07:39;99728.00;;;0.20
75822;BMP180;64454;51.984;9.838;2023-12-04T12:10:05;99729.00;;;0.00
75822;BMP180;64454;51.984;9.838;2023-12-04T12:12:32;99731.00;;;0.20
75822;BMP180;64454;51.984;9.838;2023-12-04T12:14:59;99720.00;;;0.30
75822;BMP180;64454;51.984;9.838;2023-12-04T12:17:26;99724.00;;;0.30
75822;BMP180;64454;51.984;9.838;2023-12-04T12:19:52;99713.00;;;0.30
75822;BMP180;64454;51.984;9.838;2023-12-04T12:22:18;99708.00;;;0.20
75822;BMP180;64454;51.984;9.838;2023-12-04T12:24:45;99709.00;;;0.30
75822;BMP180;64454;51.984;9.838;2023-12-04T12:27:11;99714.00;;;0.20
75822;BMP180;64454;51.984;9.838;2023-12-04T12:29:37;99711.00;;;0.30
75822;BMP180;64454;51.984;9.838;2023-12-04T12:32:04;99714.00;;;0.00
75822;BMP180;64454;51.984;9.838;2023-12-04T12:34:31;99703.00;;;0.20
75822;BMP180;64454;51.984;9.838;2023-12-04T12:37:01;99697.00;;;0.50
75822;BMP180;64454;51.984;9.838;2023-12-04T12:39:29;99695.00;;;0.50
75822;BMP180;64454;51.984;9.838;2023-12-04T12:41:55;99692.00;;;0.50
75822;BMP180;64454;51.984;9.838;2023-12-04T12:44:21;99691.00;;;0.70
75822;BMP180;64454;51.984;9.838;2023-12-04T12:46:48;99676.00;;;0.80
75822;BMP180;64454;51.984;9.838;2023-12-04T12:49:17;99672.00;;;0.50
75822;BMP180;64454;51.984;9.838;2023-12-04T12:51:45;99678.00;;;0.40
75822;BMP180;64454;51.984;9.838;2023-12-04T12:54:11;99680.00;;;0.70
75822;BMP180;64454;51.984;9.838;2023-12-04T12:56:37;99670.00;;;0.80
75822;BMP180;64454;51.984;9.838;2023-12-04T12:59:04;99671.00;;;0.80
75822;BMP180;64454;51.984;9.838;2023-12-04T13:01:31;99668.00;;;0.50
75822;BMP180;64454;51.984;9.838;2023-12-04T13:03:58;99665.00;;;0.50
75822;BMP180;64454;51.984;9.838;2023-12-04T13:06:24;99665.00;;;0.50
75822;BMP180;64454;51.984;9.838;2023-12-04T13:08:51;99664.00;;;0.40
75822;BMP180;64454;51.984;9.838;2023-12-04T13:11:17;99656.00;;;0.40
75822;BMP180;64454;51.984;9.838;2023-12-04T13:13:44;99663.00;;;0.50
75822;BMP180;64454;51.984;9.838;2023-12-04T13:16:10;99649.00;;;0.60
75822;BMP180;64454;51.984;9.838;2023-12-04T13:18:36;99655.00;;;0.50
75822;BMP180;64454;51.984;9.838;2023-12-04T13:21:04;99646.00;;;0.50
75822;BMP180;64454;51.984;9.838;2023-12-04T13:23:30;99637.00;;;0.40
75822;BMP180;64454;51.984;9.838;2023-12-04T13:25:57;99629.00;;;0.60
75822;BMP180;64454;51.984;9.838;2023-12-04T13:28:23;99626.00;;;0.30
75822;BMP180;64454;51.984;9.838;2023-12-04T13:30:50;99626.00;;;0.30
75822;BMP180;64454;51.984;9.838;2023-12-04T13:33:16;99622.00;;;0.40
75822;BMP180;64454;51.984;9.838;2023-12-04T13:35:42;99627.00;;;0.40
75822;BMP180;64454;51.984;9.838;2023-12-04T13:38:08;99610.00;;;0.50
75822;BMP180;64454;51.984;9.838;2023-12-04T13:40:38;99611.00;;;0.50
75822;BMP180;64454;51.984;9.838;2023-12-04T13:43:06;99619.00;;;0.50
75822;BMP180;64454;51.984;9.838;2023-12-04T13:45:50;99613.00;;;0.40
75822;BMP180;64454;51.984;9.838;2023-12-04T13:48:18;99616.00;;;0.40
75822;BMP180;64454;51.984;9.838;2023-12-04T13:50:46;99610.00;;;0.60
75822;BMP180;64454;51.984;9.838;2023-12-04T13:53:13;99607.00;;;0.40
75822;BMP180;64454;51.984;9.838;2023-12-04T13:55:40;99600.00;;;0.40
75822;BMP180;64454;51.984;9.838;2023-12-04T13:58:27;99608.00;;;0.60
75822;BMP180;64454;51.984;9.838;2023-12-04T14:01:04;99594.00;;;0.30